sensor_id;sensor_type;location;lat;lon;timestamp;P1;durP1;ratioP1;P2;durP2;ratioP2
21505;SDS011;10914;48.886;9.394;2023-04-06T00:02:20;43.85;;;40.35;;
21505;SDS011;10914;48.886;9.394;2023-04-06T00:04:45;45.80;;;42.30;;
21505;SDS011;10914;48.886;9.394;2023-04-06T00:07:11;42.78;;;39.53;;
21505;SDS011;10914;48.886;9.394;2023-04-06T00:09:36;44.25;;;40.75;;
21505;SDS011;10914;48.886;9.394;2023-04-06T00:12:01;41.88;;;38.65;;
21505;SDS011;10914;48.886;9.394;2023-04-06T00:14:26;42.33;;;38.85;;
21505;SDS011;10914;48.886;9.394;2023-04-06T00:16:52;40.13;;;36.85;;
21505;SDS011;10914;48.886;9.394;2023-04-06T00:19:17;40.45;;;37.30;;
21505;SDS011;10914;48.886;9.394;2023-04-06T00:21:42;40.35;;;36.83;;
21505;SDS011;10914;48.886;9.394;2023-04-06T00:24:07;40.60;;;37.28;;
21505;SDS011;10914;48.886;9.394;2023-04-06T00:26:32;39.63;;;36.65;;
21505;SDS011;10914;48.886;9.394;2023-04-06T00:28:58;40.20;;;36.80;;
21505;SDS011;10914;48.886;9.394;2023-04-06T00:31:23;38.88;;;35.85;;
21505;SDS011;10914;48.886;9.394;2023-04-06T00:33:49;38.83;;;35.90;;
21505;SDS011;10914;48.886;9.394;2023-04-06T00:36:14;37.47;;;34.60;;
21505;SDS011;10914;48.886;9.394;2023-04-06T00:38:40;39.58;;;35.95;;
21505;SDS011;10914;48.886;9.394;2023-04-06T00:41:05;39.45;;;36.30;;
21505;SDS011;10914;48.886;9.394;2023-04-06T00:43:31;38.45;;;35.35;;
21505;SDS011;10914;48.886;9.394;2023-04-06T00:45:56;38.70;;;35.70;;
21505;SDS011;10914;48.886;9.394;2023-04-06T00:48:21;38.92;;;35.72;;
21505;SDS011;10914;48.886;9.394;2023-04-06T00:50:46;37.97;;;34.78;;
21505;SDS011;10914;48.886;9.394;2023-04-06T00:53:12;40.00;;;36.90;;
21505;SDS011;10914;48.886;9.394;2023-04-06T00:55:38;40.22;;;37.15;;
21505;SDS011;10914;48.886;9.394;2023-04-06T00:58:03;39.88;;;36.58;;
21505;SDS011;10914;48.886;9.394;2023-04-06T01:00:29;38.40;;;35.55;;
21505;SDS011;10914;48.886;9.394;2023-04-06T01:02:54;38.10;;;35.10;;
21505;SDS011;10914;48.886;9.394;2023-04-06T01:05:19;39.78;;;36.75;;
21505;SDS011;10914;48.886;9.394;2023-04-06T01:07:46;41.60;;;38.30;;
21505;SDS011;10914;48.886;9.394;2023-04-06T01:10:21;42.30;;;39.00;;
21505;SDS011;10914;48.886;9.394;2023-04-06T01:12:47;40.35;;;37.35;;
21505;SDS011;10914;48.886;9.394;2023-04-06T01:15:12;40.08;;;36.70;;
21505;SDS011;10914;48.886;9.394;2023-04-06T01:17:37;38.90;;;35.88;;
21505;SDS011;10914;48.886;9.394;2023-04-06T01:20:02;38.80;;;35.60;;
21505;SDS011;10914;48.886;9.394;2023-04-06T01:22:28;39.47;;;36.20;;
21505;SDS011;10914;48.886;9.394;2023-04-06T01:24:53;39.75;;;36.35;;
21505;SDS011;10914;48.886;9.394;2023-04-06T01:27:18;40.22;;;36.97;;
21505;SDS011;10914;48.886;9.394;2023-04-06T01:29:44;39.97;;;36.92;;
21505;SDS011;10914;48.886;9.394;2023-04-06T01:32:10;38.95;;;35.85;;
21505;SDS011;10914;48.886;9.394;2023-04-06T01:34:35;40.60;;;37.00;;
21505;SDS011;10914;48.886;9.394;2023-04-06T01:37:00;39.25;;;36.10;;
21505;SDS011;10914;48.886;9.394;2023-04-06T01:39:26;38.85;;;35.90;;
21505;SDS011;10914;48.886;9.394;2023-04-06T01:41:51;39.72;;;36.63;;
21505;SDS011;10914;48.886;9.394;2023-04-06T01:44:16;40.83;;;37.75;;
21505;SDS011;10914;48.886;9.394;2023-04-06T01:46:42;40.20;;;37.13;;
21505;SDS011;10914;48.886;9.394;2023-04-06T01:49:07;40.45;;;37.22;;
21505;SDS011;10914;48.886;9.394;2023-04-06T01:51:32;41.78;;;38.55;;
21505;SDS011;10914;48.886;9.394;2023-04-06T01:53:57;41.97;;;38.58;;
21505;SDS011;10914;48.886;9.394;2023-04-06T01:56:22;41.17;;;37.78;;
21505;SDS011;10914;48.886;9.394;2023-04-06T01:58:48;42.13;;;38.67;;
21505;SDS011;10914;48.886;9.394;2023-04-06T02:01:13;41.83;;;38.40;;
21505;SDS011;10914;48.886;9.394;2023-04-06T02:03:38;40.80;;;37.65;;
21505;SDS011;10914;48.886;9.394;2023-04-06T02:06:03;41.16;;;37.98;;
21505;SDS011;10914;48.886;9.394;2023-04-06T02:08:29;41.13;;;37.75;;
21505;SDS011;10914;48.886;9.394;2023-04-06T02:10:54;41.45;;;38.20;;
21505;SDS011;10914;48.886;9.394;2023-04-06T02:13:19;42.83;;;39.22;;
21505;SDS011;10914;48.886;9.394;2023-04-06T02:15:44;43.30;;;39.97;;
21505;SDS011;10914;48.886;9.394;2023-04-06T02:18:10;44.20;;;40.38;;
21505;SDS011;10914;48.886;9.394;2023-04-06T02:20:35;41.92;;;38.53;;
21505;SDS011;10914;48.886;9.394;2023-04-06T02:23:00;42.67;;;39.25;;
21505;SDS011;10914;48.886;9.394;2023-04-06T02:25:25;43.15;;;39.65;;
21505;SDS011;10914;48.886;9.394;2023-04-06T02:27:51;41.78;;;38.63;;
21505;SDS011;10914;48.886;9.394;2023-04-06T02:30:16;43.33;;;39.72;;
21505;SDS011;10914;48.886;9.394;2023-04-06T02:32:41;42.90;;;39.30;;
21505;SDS011;10914;48.886;9.394;2023-04-06T02:35:07;42.35;;;38.85;;
21505;SDS011;10914;48.886;9.394;2023-04-06T02:37:32;41.85;;;38.45;;
21505;SDS011;10914;48.886;9.394;2023-04-06T02:39:57;43.45;;;40.00;;
21505;SDS011;10914;48.886;9.394;2023-04-06T02:42:22;42.28;;;38.88;;
21505;SDS011;10914;48.886;9.394;2023-04-06T02:44:48;42.40;;;38.85;;
21505;SDS011;10914;48.886;9.394;2023-04-06T02:47:13;41.90;;;38.65;;
21505;SDS011;10914;48.886;9.394;2023-04-06T02:49:38;42.70;;;39.15;;
21505;SDS011;10914;48.886;9.394;2023-04-06T02:52:03;41.63;;;38.33;;
21505;SDS011;10914;48.886;9.394;2023-04-06T02:54:29;42.80;;;39.33;;
21505;SDS011;10914;48.886;9.394;2023-04-06T02:56:54;43.67;;;40.17;;
21505;SDS011;10914;48.886;9.394;2023-04-06T02:59:19;43.78;;;40.08;;
21505;SDS011;10914;48.886;9.394;2023-04-06T03:01:45;43.75;;;40.10;;
21505;SDS011;10914;48.886;9.394;2023-04-06T03:04:10;42.10;;;38.90;;
21505;SDS011;10914;48.886;9.394;2023-04-06T03:06:35;43.65;;;40.25;;
21505;SDS011;10914;48.886;9.394;2023-04-06T03:09:02;41.88;;;38.47;;
21505;SDS011;10914;48.886;9.394;2023-04-06T03:11:27;41.15;;;38.05;;
21505;SDS011;10914;48.886;9.394;2023-04-06T03:13:52;43.00;;;39.45;;
21505;SDS011;10914;48.886;9.394;2023-04-06T03:16:17;42.78;;;39.33;;
21505;SDS011;10914;48.886;9.394;2023-04-06T03:18:43;42.00;;;38.70;;
21505;SDS011;10914;48.886;9.394;2023-04-06T03:21:09;42.38;;;39.03;;
21505;SDS011;10914;48.886;9.394;2023-04-06T03:23:35;41.72;;;38.38;;
21505;SDS011;10914;48.886;9.394;2023-04-06T03:26:00;43.08;;;39.45;;
21505;SDS011;10914;48.886;9.394;2023-04-06T03:28:26;42.92;;;39.53;;
21505;SDS011;10914;48.886;9.394;2023-04-06T03:30:51;42.83;;;39.42;;
21505;SDS011;10914;48.886;9.394;2023-04-06T03:33:16;42.50;;;39.40;;
21505;SDS011;10914;48.886;9.394;2023-04-06T03:35:41;42.80;;;39.60;;
21505;SDS011;10914;48.886;9.394;2023-04-06T03:38:06;42.95;;;39.35;;
21505;SDS011;10914;48.886;9.394;2023-04-06T03:40:32;42.72;;;39.33;;
21505;SDS011;10914;48.886;9.394;2023-04-06T03:42:57;44.47;;;40.80;;
21505;SDS011;10914;48.886;9.394;2023-04-06T03:45:22;42.72;;;39.53;;
21505;SDS011;10914;48.886;9.394;2023-04-06T03:47:47;44.38;;;40.67;;
21505;SDS011;10914;48.886;9.394;2023-04-06T03:50:13;42.17;;;38.88;;
21505;SDS011;10914;48.886;9.394;2023-04-06T03:52:38;42.97;;;39.60;;
21505;SDS011;10914;48.886;9.394;2023-04-06T03:55:03;43.03;;;39.63;;
21505;SDS011;10914;48.886;9.394;2023-04-06T03:57:29;43.38;;;39.90;;
21505;SDS011;10914;48.886;9.394;2023-04-06T03:59:54;43.28;;;39.76;;
21505;SDS011;10914;48.886;9.394;2023-04-06T04:02:19;44.30;;;40.55;;
21505;SDS011;10914;48.886;9.394;2023-04-06T04:04:44;43.60;;;40.13;;
21505;SDS011;10914;48.886;9.394;2023-04-06T04:07:10;44.10;;;40.50;;
21505;SDS011;10914;48.886;9.394;2023-04-06T04:09:36;43.45;;;39.95;;
21505;SDS011;10914;48.886;9.394;2023-04-06T04:12:01;44.55;;;40.85;;
21505;SDS011;10914;48.886;9.394;2023-04-06T04:14:26;44.05;;;40.45;;
21505;SDS011;10914;48.886;9.394;2023-04-06T04:16:51;45.00;;;41.35;;
21505;SDS011;10914;48.886;9.394;2023-04-06T04:19:17;45.60;;;41.65;;
21505;SDS011;10914;48.886;9.394;2023-04-06T04:21:46;44.30;;;40.60;;
21505;SDS011;10914;48.886;9.394;2023-04-06T04:24:11;44.83;;;41.20;;
21505;SDS011;10914;48.886;9.394;2023-04-06T04:26:37;46.70;;;42.60;;
21505;SDS011;10914;48.886;9.394;2023-04-06T04:29:02;46.63;;;42.78;;
21505;SDS011;10914;48.886;9.394;2023-04-06T04:31:27;45.90;;;42.10;;
21505;SDS011;10914;48.886;9.394;2023-04-06T04:33:52;46.16;;;42.44;;
21505;SDS011;10914;48.886;9.394;2023-04-06T04:36:18;45.92;;;42.10;;
21505;SDS011;10914;48.886;9.394;2023-04-06T04:38:43;47.63;;;43.47;;
21505;SDS011;10914;48.886;9.394;2023-04-06T04:41:08;45.80;;;42.00;;
21505;SDS011;10914;48.886;9.394;2023-04-06T04:43:33;46.97;;;42.80;;
21505;SDS011;10914;48.886;9.394;2023-04-06T04:45:58;46.38;;;42.70;;
21505;SDS011;10914;48.886;9.394;2023-04-06T04:48:24;46.00;;;42.22;;
21505;SDS011;10914;48.886;9.394;2023-04-06T04:50:49;45.30;;;41.80;;
21505;SDS011;10914;48.886;9.394;2023-04-06T04:53:14;46.95;;;42.95;;
21505;SDS011;10914;48.886;9.394;2023-04-06T04:55:39;46.17;;;42.20;;
21505;SDS011;10914;48.886;9.394;2023-04-06T04:58:05;44.60;;;41.10;;
21505;SDS011;10914;48.886;9.394;2023-04-06T05:00:30;47.35;;;43.50;;
21505;SDS011;10914;48.886;9.394;2023-04-06T05:02:56;45.60;;;41.90;;
21505;SDS011;10914;48.886;9.394;2023-04-06T05:05:21;46.63;;;42.70;;
21505;SDS011;10914;48.886;9.394;2023-04-06T05:07:47;49.58;;;45.83;;
21505;SDS011;10914;48.886;9.394;2023-04-06T05:10:12;46.33;;;42.70;;
21505;SDS011;10914;48.886;9.394;2023-04-06T05:12:37;46.03;;;42.20;;
21505;SDS011;10914;48.886;9.394;2023-04-06T05:15:03;45.70;;;42.20;;
21505;SDS011;10914;48.886;9.394;2023-04-06T05:17:29;46.47;;;42.67;;
21505;SDS011;10914;48.886;9.394;2023-04-06T05:19:54;46.75;;;43.13;;
21505;SDS011;10914;48.886;9.394;2023-04-06T05:22:19;48.40;;;44.53;;
21505;SDS011;10914;48.886;9.394;2023-04-06T05:24:45;46.80;;;42.97;;
21505;SDS011;10914;48.886;9.394;2023-04-06T05:27:10;48.88;;;45.00;;
21505;SDS011;10914;48.886;9.394;2023-04-06T05:29:35;49.63;;;45.70;;
21505;SDS011;10914;48.886;9.394;2023-04-06T05:32:01;51.28;;;47.38;;
21505;SDS011;10914;48.886;9.394;2023-04-06T05:34:26;49.67;;;45.83;;
21505;SDS011;10914;48.886;9.394;2023-04-06T05:36:52;49.10;;;45.20;;
21505;SDS011;10914;48.886;9.394;2023-04-06T05:39:17;48.45;;;44.70;;
21505;SDS011;10914;48.886;9.394;2023-04-06T05:41:43;46.95;;;43.17;;
21505;SDS011;10914;48.886;9.394;2023-04-06T05:44:08;44.78;;;41.20;;
21505;SDS011;10914;48.886;9.394;2023-04-06T05:46:34;41.95;;;38.47;;
21505;SDS011;10914;48.886;9.394;2023-04-06T05:48:59;42.78;;;39.17;;
21505;SDS011;10914;48.886;9.394;2023-04-06T05:51:25;41.17;;;37.92;;
21505;SDS011;10914;48.886;9.394;2023-04-06T05:53:51;40.63;;;37.40;;
21505;SDS011;10914;48.886;9.394;2023-04-06T05:56:16;41.65;;;38.25;;
21505;SDS011;10914;48.886;9.394;2023-04-06T05:58:42;40.15;;;36.75;;
21505;SDS011;10914;48.886;9.394;2023-04-06T06:01:07;41.65;;;38.15;;
21505;SDS011;10914;48.886;9.394;2023-04-06T06:03:33;40.60;;;37.15;;
21505;SDS011;10914;48.886;9.394;2023-04-06T06:06:00;41.25;;;37.85;;
21505;SDS011;10914;48.886;9.394;2023-04-06T06:08:25;46.08;;;42.20;;
21505;SDS011;10914;48.886;9.394;2023-04-06T06:10:51;48.20;;;44.65;;
21505;SDS011;10914;48.886;9.394;2023-04-06T06:13:16;52.67;;;48.80;;
21505;SDS011;10914;48.886;9.394;2023-04-06T06:15:42;54.28;;;50.00;;
21505;SDS011;10914;48.886;9.394;2023-04-06T06:18:07;50.72;;;46.88;;
21505;SDS011;10914;48.886;9.394;2023-04-06T06:20:32;50.97;;;46.92;;
21505;SDS011;10914;48.886;9.394;2023-04-06T06:22:57;46.75;;;43.28;;
21505;SDS011;10914;48.886;9.394;2023-04-06T06:25:23;48.47;;;44.50;;
21505;SDS011;10914;48.886;9.394;2023-04-06T06:27:48;43.85;;;40.17;;
21505;SDS011;10914;48.886;9.394;2023-04-06T06:30:13;40.65;;;37.28;;
21505;SDS011;10914;48.886;9.394;2023-04-06T06:32:39;40.45;;;37.13;;
21505;SDS011;10914;48.886;9.394;2023-04-06T06:35:05;39.55;;;36.40;;
21505;SDS011;10914;48.886;9.394;2023-04-06T06:37:30;39.67;;;36.55;;
21505;SDS011;10914;48.886;9.394;2023-04-06T06:39:56;39.30;;;35.70;;
21505;SDS011;10914;48.886;9.394;2023-04-06T06:42:21;38.97;;;35.83;;
21505;SDS011;10914;48.886;9.394;2023-04-06T06:44:46;39.40;;;36.20;;
21505;SDS011;10914;48.886;9.394;2023-04-06T06:47:11;38.60;;;35.50;;
21505;SDS011;10914;48.886;9.394;2023-04-06T06:49:37;39.03;;;35.92;;
21505;SDS011;10914;48.886;9.394;2023-04-06T06:52:05;37.63;;;34.63;;
21505;SDS011;10914;48.886;9.394;2023-04-06T06:54:30;37.60;;;34.70;;
21505;SDS011;10914;48.886;9.394;2023-04-06T06:56:55;37.83;;;34.50;;
21505;SDS011;10914;48.886;9.394;2023-04-06T06:59:21;36.85;;;33.95;;
21505;SDS011;10914;48.886;9.394;2023-04-06T07:01:46;39.58;;;36.80;;
21505;SDS011;10914;48.886;9.394;2023-04-06T07:04:11;41.73;;;38.70;;
21505;SDS011;10914;48.886;9.394;2023-04-06T07:06:36;46.72;;;43.33;;
21505;SDS011;10914;48.886;9.394;2023-04-06T07:09:02;45.10;;;41.90;;
21505;SDS011;10914;48.886;9.394;2023-04-06T07:11:28;42.63;;;39.58;;
21505;SDS011;10914;48.886;9.394;2023-04-06T07:13:53;40.70;;;37.70;;
21505;SDS011;10914;48.886;9.394;2023-04-06T07:16:19;37.55;;;34.58;;
21505;SDS011;10914;48.886;9.394;2023-04-06T07:18:44;36.67;;;33.80;;
21505;SDS011;10914;48.886;9.394;2023-04-06T07:21:10;35.72;;;33.08;;
21505;SDS011;10914;48.886;9.394;2023-04-06T07:23:35;35.63;;;32.95;;
21505;SDS011;10914;48.886;9.394;2023-04-06T07:26:00;35.85;;;33.10;;
21505;SDS011;10914;48.886;9.394;2023-04-06T07:28:25;35.15;;;32.53;;
21505;SDS011;10914;48.886;9.394;2023-04-06T07:30:51;36.50;;;33.83;;
21505;SDS011;10914;48.886;9.394;2023-04-06T07:33:16;35.25;;;32.60;;
21505;SDS011;10914;48.886;9.394;2023-04-06T07:35:41;35.88;;;33.20;;
21505;SDS011;10914;48.886;9.394;2023-04-06T07:38:06;34.92;;;32.22;;
21505;SDS011;10914;48.886;9.394;2023-04-06T07:40:32;36.00;;;33.17;;
21505;SDS011;10914;48.886;9.394;2023-04-06T07:42:57;35.47;;;32.67;;
21505;SDS011;10914;48.886;9.394;2023-04-06T07:45:23;35.90;;;32.63;;
21505;SDS011;10914;48.886;9.394;2023-04-06T07:47:48;34.72;;;31.77;;
21505;SDS011;10914;48.886;9.394;2023-04-06T07:50:14;35.38;;;32.53;;
21505;SDS011;10914;48.886;9.394;2023-04-06T07:52:40;34.60;;;31.98;;
21505;SDS011;10914;48.886;9.394;2023-04-06T07:55:08;34.35;;;31.58;;
21505;SDS011;10914;48.886;9.394;2023-04-06T07:57:33;33.83;;;31.30;;
21505;SDS011;10914;48.886;9.394;2023-04-06T07:59:59;34.45;;;31.60;;
21505;SDS011;10914;48.886;9.394;2023-04-06T08:02:25;33.78;;;31.17;;
21505;SDS011;10914;48.886;9.394;2023-04-06T08:04:51;34.70;;;31.90;;
21505;SDS011;10914;48.886;9.394;2023-04-06T08:07:16;35.15;;;32.45;;
21505;SDS011;10914;48.886;9.394;2023-04-06T08:09:41;34.25;;;31.70;;
21505;SDS011;10914;48.886;9.394;2023-04-06T08:12:07;34.15;;;31.85;;
21505;SDS011;10914;48.886;9.394;2023-04-06T08:14:32;36.17;;;33.58;;
21505;SDS011;10914;48.886;9.394;2023-04-06T08:16:57;37.63;;;34.63;;
21505;SDS011;10914;48.886;9.394;2023-04-06T08:19:23;35.55;;;32.90;;
21505;SDS011;10914;48.886;9.394;2023-04-06T08:21:48;37.03;;;34.05;;
21505;SDS011;10914;48.886;9.394;2023-04-06T08:24:14;37.67;;;34.63;;
21505;SDS011;10914;48.886;9.394;2023-04-06T08:26:39;35.97;;;33.38;;
21505;SDS011;10914;48.886;9.394;2023-04-06T08:29:05;36.38;;;33.63;;
21505;SDS011;10914;48.886;9.394;2023-04-06T08:31:32;35.80;;;33.08;;
21505;SDS011;10914;48.886;9.394;2023-04-06T08:33:58;34.38;;;31.67;;
21505;SDS011;10914;48.886;9.394;2023-04-06T08:36:23;34.00;;;31.30;;
21505;SDS011;10914;48.886;9.394;2023-04-06T08:38:48;34.17;;;31.48;;
21505;SDS011;10914;48.886;9.394;2023-04-06T08:41:14;34.60;;;31.90;;
21505;SDS011;10914;48.886;9.394;2023-04-06T08:43:44;40.20;;;37.08;;
21505;SDS011;10914;48.886;9.394;2023-04-06T08:46:10;34.53;;;31.73;;
21505;SDS011;10914;48.886;9.394;2023-04-06T08:48:36;34.65;;;31.85;;
21505;SDS011;10914;48.886;9.394;2023-04-06T08:51:03;34.35;;;31.55;;
21505;SDS011;10914;48.886;9.394;2023-04-06T08:53:28;34.60;;;31.83;;
21505;SDS011;10914;48.886;9.394;2023-04-06T08:55:54;34.70;;;32.00;;
21505;SDS011;10914;48.886;9.394;2023-04-06T08:58:20;35.60;;;32.55;;
21505;SDS011;10914;48.886;9.394;2023-04-06T09:00:47;34.28;;;31.67;;
21505;SDS011;10914;48.886;9.394;2023-04-06T09:03:12;35.40;;;32.33;;
21505;SDS011;10914;48.886;9.394;2023-04-06T09:05:38;34.72;;;31.83;;
21505;SDS011;10914;48.886;9.394;2023-04-06T09:08:04;34.00;;;31.40;;
21505;SDS011;10914;48.886;9.394;2023-04-06T09:10:30;34.13;;;31.42;;
21505;SDS011;10914;48.886;9.394;2023-04-06T09:13:04;34.58;;;31.63;;
21505;SDS011;10914;48.886;9.394;2023-04-06T09:15:30;33.28;;;30.67;;
21505;SDS011;10914;48.886;9.394;2023-04-06T09:17:55;34.55;;;31.85;;
21505;SDS011;10914;48.886;9.394;2023-04-06T09:20:24;35.25;;;32.33;;
21505;SDS011;10914;48.886;9.394;2023-04-06T09:22:52;35.03;;;32.28;;
21505;SDS011;10914;48.886;9.394;2023-04-06T09:25:18;35.85;;;33.00;;
21505;SDS011;10914;48.886;9.394;2023-04-06T09:27:44;38.78;;;35.78;;
21505;SDS011;10914;48.886;9.394;2023-04-06T09:30:10;40.22;;;37.25;;
21505;SDS011;10914;48.886;9.394;2023-04-06T09:32:47;40.15;;;36.97;;
21505;SDS011;10914;48.886;9.394;2023-04-06T09:35:13;38.17;;;35.33;;
21505;SDS011;10914;48.886;9.394;2023-04-06T09:37:38;37.75;;;35.00;;
21505;SDS011;10914;48.886;9.394;2023-04-06T09:40:04;36.85;;;34.05;;
21505;SDS011;10914;48.886;9.394;2023-04-06T09:42:30;34.42;;;31.63;;
21505;SDS011;10914;48.886;9.394;2023-04-06T09:44:55;33.85;;;31.30;;
21505;SDS011;10914;48.886;9.394;2023-04-06T09:47:20;33.75;;;31.13;;
21505;SDS011;10914;48.886;9.394;2023-04-06T09:49:48;33.42;;;30.85;;
21505;SDS011;10914;48.886;9.394;2023-04-06T09:52:14;31.80;;;29.33;;
21505;SDS011;10914;48.886;9.394;2023-04-06T09:54:40;32.92;;;30.30;;
21505;SDS011;10914;48.886;9.394;2023-04-06T10:02:06;33.03;;;30.33;;
21505;SDS011;10914;48.886;9.394;2023-04-06T10:04:37;33.50;;;30.67;;
21505;SDS011;10914;48.886;9.394;2023-04-06T10:07:04;31.65;;;29.27;;
21505;SDS011;10914;48.886;9.394;2023-04-06T10:09:31;32.80;;;30.45;;
21505;SDS011;10914;48.886;9.394;2023-04-06T10:12:04;32.28;;;29.80;;
21505;SDS011;10914;48.886;9.394;2023-04-06T10:14:31;31.38;;;29.08;;
21505;SDS011;10914;48.886;9.394;2023-04-06T10:16:56;31.33;;;28.95;;
21505;SDS011;10914;48.886;9.394;2023-04-06T10:19:23;33.00;;;30.50;;
21505;SDS011;10914;48.886;9.394;2023-04-06T10:21:51;32.83;;;30.35;;
21505;SDS011;10914;48.886;9.394;2023-04-06T10:24:18;32.65;;;30.02;;
21505;SDS011;10914;48.886;9.394;2023-04-06T10:26:43;32.65;;;30.15;;
21505;SDS011;10914;48.886;9.394;2023-04-06T10:29:08;32.72;;;30.13;;
21505;SDS011;10914;48.886;9.394;2023-04-06T10:31:39;32.00;;;29.60;;
21505;SDS011;10914;48.886;9.394;2023-04-06T10:34:04;31.50;;;29.10;;
21505;SDS011;10914;48.886;9.394;2023-04-06T10:36:33;32.60;;;30.00;;
21505;SDS011;10914;48.886;9.394;2023-04-06T10:39:03;32.78;;;30.38;;
21505;SDS011;10914;48.886;9.394;2023-04-06T10:41:35;31.48;;;29.20;;
21505;SDS011;10914;48.886;9.394;2023-04-06T10:44:00;30.70;;;28.40;;
21505;SDS011;10914;48.886;9.394;2023-04-06T10:46:29;30.95;;;28.58;;
21505;SDS011;10914;48.886;9.394;2023-04-06T10:48:55;33.03;;;30.50;;
21505;SDS011;10914;48.886;9.394;2023-04-06T10:51:24;32.22;;;29.85;;
21505;SDS011;10914;48.886;9.394;2023-04-06T10:53:49;34.03;;;31.63;;
21505;SDS011;10914;48.886;9.394;2023-04-06T10:56:15;34.33;;;31.92;;
21505;SDS011;10914;48.886;9.394;2023-04-06T10:58:44;34.60;;;32.08;;
21505;SDS011;10914;48.886;9.394;2023-04-06T11:01:11;33.28;;;30.88;;
21505;SDS011;10914;48.886;9.394;2023-04-06T11:03:49;33.83;;;31.33;;
21505;SDS011;10914;48.886;9.394;2023-04-06T11:06:19;33.50;;;31.00;;
21505;SDS011;10914;48.886;9.394;2023-04-06T11:08:44;31.52;;;29.00;;
21505;SDS011;10914;48.886;9.394;2023-04-06T11:11:11;30.65;;;28.35;;
21505;SDS011;10914;48.886;9.394;2023-04-06T11:13:49;29.85;;;27.75;;
21505;SDS011;10914;48.886;9.394;2023-04-06T11:16:15;30.52;;;28.27;;
21505;SDS011;10914;48.886;9.394;2023-04-06T11:21:15;29.55;;;27.35;;
21505;SDS011;10914;48.886;9.394;2023-04-06T11:23:40;29.25;;;27.05;;
21505;SDS011;10914;48.886;9.394;2023-04-06T11:26:12;29.38;;;27.27;;
21505;SDS011;10914;48.886;9.394;2023-04-06T11:28:40;28.55;;;26.38;;
21505;SDS011;10914;48.886;9.394;2023-04-06T11:31:05;31.30;;;28.80;;
21505;SDS011;10914;48.886;9.394;2023-04-06T11:33:34;30.02;;;27.80;;
21505;SDS011;10914;48.886;9.394;2023-04-06T11:36:00;31.10;;;28.80;;
21505;SDS011;10914;48.886;9.394;2023-04-06T11:38:25;29.08;;;27.05;;
21505;SDS011;10914;48.886;9.394;2023-04-06T11:40:54;26.60;;;24.73;;
21505;SDS011;10914;48.886;9.394;2023-04-06T11:43:25;26.60;;;24.70;;
21505;SDS011;10914;48.886;9.394;2023-04-06T11:45:51;26.80;;;24.73;;
21505;SDS011;10914;48.886;9.394;2023-04-06T11:48:24;26.52;;;24.65;;
21505;SDS011;10914;48.886;9.394;2023-04-06T11:50:55;25.58;;;23.77;;
21505;SDS011;10914;48.886;9.394;2023-04-06T11:53:20;28.50;;;26.40;;
21505;SDS011;10914;48.886;9.394;2023-04-06T11:55:45;27.20;;;25.20;;
21505;SDS011;10914;48.886;9.394;2023-04-06T11:58:12;27.90;;;25.90;;
21505;SDS011;10914;48.886;9.394;2023-04-06T12:00:37;27.97;;;25.93;;
21505;SDS011;10914;48.886;9.394;2023-04-06T12:03:02;27.20;;;25.30;;
21505;SDS011;10914;48.886;9.394;2023-04-06T12:05:27;27.37;;;25.27;;
21505;SDS011;10914;48.886;9.394;2023-04-06T12:07:54;27.15;;;25.25;;
21505;SDS011;10914;48.886;9.394;2023-04-06T12:10:20;27.48;;;25.27;;
21505;SDS011;10914;48.886;9.394;2023-04-06T12:12:45;26.95;;;25.05;;
21505;SDS011;10914;48.886;9.394;2023-04-06T12:15:10;25.98;;;24.20;;
21505;SDS011;10914;48.886;9.394;2023-04-06T12:17:36;27.13;;;25.10;;
21505;SDS011;10914;48.886;9.394;2023-04-06T12:20:01;26.55;;;24.75;;
21505;SDS011;10914;48.886;9.394;2023-04-06T12:22:27;24.40;;;22.90;;
21505;SDS011;10914;48.886;9.394;2023-04-06T12:24:52;23.92;;;22.33;;
21505;SDS011;10914;48.886;9.394;2023-04-06T12:27:18;24.87;;;23.17;;
21505;SDS011;10914;48.886;9.394;2023-04-06T12:29:43;24.25;;;22.60;;
21505;SDS011;10914;48.886;9.394;2023-04-06T12:32:08;26.17;;;24.37;;
21505;SDS011;10914;48.886;9.394;2023-04-06T12:34:34;25.35;;;23.60;;
21505;SDS011;10914;48.886;9.394;2023-04-06T12:36:59;24.77;;;23.13;;
21505;SDS011;10914;48.886;9.394;2023-04-06T12:39:25;24.55;;;22.85;;
21505;SDS011;10914;48.886;9.394;2023-04-06T12:41:52;24.98;;;23.25;;
21505;SDS011;10914;48.886;9.394;2023-04-06T12:44:17;25.30;;;23.50;;
21505;SDS011;10914;48.886;9.394;2023-04-06T12:46:43;25.85;;;24.15;;
21505;SDS011;10914;48.886;9.394;2023-04-06T12:49:08;27.20;;;25.27;;
21505;SDS011;10914;48.886;9.394;2023-04-06T12:51:33;26.27;;;24.53;;
21505;SDS011;10914;48.886;9.394;2023-04-06T12:53:58;26.00;;;24.20;;
21505;SDS011;10914;48.886;9.394;2023-04-06T12:56:23;27.10;;;25.13;;
21505;SDS011;10914;48.886;9.394;2023-04-06T12:58:50;26.55;;;24.65;;
21505;SDS011;10914;48.886;9.394;2023-04-06T13:01:15;24.95;;;23.25;;
21505;SDS011;10914;48.886;9.394;2023-04-06T13:03:41;26.17;;;24.38;;
21505;SDS011;10914;48.886;9.394;2023-04-06T13:06:06;26.13;;;24.25;;
21505;SDS011;10914;48.886;9.394;2023-04-06T13:08:33;24.77;;;23.08;;
21505;SDS011;10914;48.886;9.394;2023-04-06T13:10:58;26.57;;;24.67;;
21505;SDS011;10914;48.886;9.394;2023-04-06T13:13:25;25.83;;;24.13;;
21505;SDS011;10914;48.886;9.394;2023-04-06T13:15:51;25.88;;;24.13;;
21505;SDS011;10914;48.886;9.394;2023-04-06T13:18:16;27.05;;;25.05;;
21505;SDS011;10914;48.886;9.394;2023-04-06T13:20:41;24.75;;;22.95;;
21505;SDS011;10914;48.886;9.394;2023-04-06T13:23:07;24.95;;;23.25;;
21505;SDS011;10914;48.886;9.394;2023-04-06T13:25:32;24.83;;;23.20;;
21505;SDS011;10914;48.886;9.394;2023-04-06T13:27:57;26.77;;;24.70;;
21505;SDS011;10914;48.886;9.394;2023-04-06T13:30:22;27.37;;;25.47;;
21505;SDS011;10914;48.886;9.394;2023-04-06T13:32:48;25.23;;;23.48;;
21505;SDS011;10914;48.886;9.394;2023-04-06T13:35:13;25.55;;;23.80;;
21505;SDS011;10914;48.886;9.394;2023-04-06T13:37:38;26.48;;;24.67;;
21505;SDS011;10914;48.886;9.394;2023-04-06T13:40:04;25.45;;;23.67;;
21505;SDS011;10914;48.886;9.394;2023-04-06T13:42:30;26.05;;;24.25;;
21505;SDS011;10914;48.886;9.394;2023-04-06T13:44:55;26.02;;;24.23;;
21505;SDS011;10914;48.886;9.394;2023-04-06T13:47:20;25.23;;;23.43;;
21505;SDS011;10914;48.886;9.394;2023-04-06T13:49:47;26.45;;;24.67;;
21505;SDS011;10914;48.886;9.394;2023-04-06T13:52:12;26.98;;;24.90;;
21505;SDS011;10914;48.886;9.394;2023-04-06T13:54:37;25.90;;;24.10;;
21505;SDS011;10914;48.886;9.394;2023-04-06T13:57:03;25.42;;;23.73;;
21505;SDS011;10914;48.886;9.394;2023-04-06T13:59:32;24.98;;;23.27;;
21505;SDS011;10914;48.886;9.394;2023-04-06T14:01:57;26.30;;;24.38;;
21505;SDS011;10914;48.886;9.394;2023-04-06T14:04:22;26.13;;;24.33;;
21505;SDS011;10914;48.886;9.394;2023-04-06T14:06:48;25.88;;;24.17;;
21505;SDS011;10914;48.886;9.394;2023-04-06T14:09:13;25.77;;;24.08;;
21505;SDS011;10914;48.886;9.394;2023-04-06T14:11:38;24.97;;;23.27;;
21505;SDS011;10914;48.886;9.394;2023-04-06T14:14:03;24.67;;;23.08;;
21505;SDS011;10914;48.886;9.394;2023-04-06T14:16:29;24.77;;;22.97;;
21505;SDS011;10914;48.886;9.394;2023-04-06T14:18:54;26.48;;;24.58;;
21505;SDS011;10914;48.886;9.394;2023-04-06T14:21:22;26.88;;;24.98;;